La Puntilla, Argentina
Current Conditions -  °F | °C
As of 1:00 PM on Saturday 22 Nov 2014 (Local Time) from SAME Reporting Station
Clear Clear  
Wind Chill: 79°   Ceiling: Unl
Heat Index: 79°   Visibility: 6mi
Dew Point: 37°   Wind: 14mph
Humidity: 23%   Direction: 50°NE
Pressure: 29.91"   Gusts: NA
Location:  32.97°S, 68.87°W
Report Text: SAME 221600Z 05012KT CAVOK 26/03 Q1013
Loading
Personal Weather Stations






























Interactive Weather Map New forecast layout! Learn more

10-Day Weather Forecast

Advertisements
Track Severe Weather on mobile